sensor_id;sensor_type;location;lat;lon;timestamp;P1;durP1;ratioP1;P2;durP2;ratioP2
25509;SDS011;13413;52.336;21.200;2023-05-07T00:01:24;8.70;;;5.80;;
25509;SDS011;13413;52.336;21.200;2023-05-07T00:04:18;8.10;;;5.50;;
25509;SDS011;13413;52.336;21.200;2023-05-07T00:07:12;6.80;;;4.30;;
25509;SDS011;13413;52.336;21.200;2023-05-07T00:10:08;8.90;;;6.10;;
25509;SDS011;13413;52.336;21.200;2023-05-07T00:13:03;6.90;;;5.90;;
25509;SDS011;13413;52.336;21.200;2023-05-07T00:27:17;6.40;;;5.40;;
25509;SDS011;13413;52.336;21.200;2023-05-07T00:30:12;10.00;;;5.30;;
25509;SDS011;13413;52.336;21.200;2023-05-07T00:33:06;7.30;;;5.20;;
25509;SDS011;13413;52.336;21.200;2023-05-07T00:39:08;6.70;;;4.80;;
25509;SDS011;13413;52.336;21.200;2023-05-07T00:42:05;6.30;;;4.60;;
25509;SDS011;13413;52.336;21.200;2023-05-07T00:44:59;9.20;;;5.30;;
25509;SDS011;13413;52.336;21.200;2023-05-07T00:47:57;6.20;;;5.40;;
25509;SDS011;13413;52.336;21.200;2023-05-07T00:50:51;8.90;;;5.10;;
25509;SDS011;13413;52.336;21.200;2023-05-07T00:53:46;7.10;;;4.70;;
25509;SDS011;13413;52.336;21.200;2023-05-07T00:56:40;9.20;;;5.90;;
25509;SDS011;13413;52.336;21.200;2023-05-07T00:59:34;8.40;;;5.10;;
25509;SDS011;13413;52.336;21.200;2023-05-07T01:02:28;8.60;;;5.20;;
25509;SDS011;13413;52.336;21.200;2023-05-07T01:05:22;6.50;;;4.90;;
25509;SDS011;13413;52.336;21.200;2023-05-07T01:08:17;7.40;;;5.70;;
25509;SDS011;13413;52.336;21.200;2023-05-07T01:11:12;7.60;;;4.80;;
25509;SDS011;13413;52.336;21.200;2023-05-07T01:14:10;5.90;;;4.40;;
25509;SDS011;13413;52.336;21.200;2023-05-07T01:17:05;7.70;;;4.80;;
25509;SDS011;13413;52.336;21.200;2023-05-07T01:19:59;8.50;;;5.00;;
25509;SDS011;13413;52.336;21.200;2023-05-07T01:22:53;4.30;;;3.20;;
25509;SDS011;13413;52.336;21.200;2023-05-07T01:25:53;6.70;;;4.90;;
25509;SDS011;13413;52.336;21.200;2023-05-07T01:28:47;6.40;;;5.10;;
25509;SDS011;13413;52.336;21.200;2023-05-07T01:31:42;7.40;;;4.70;;
25509;SDS011;13413;52.336;21.200;2023-05-07T01:34:36;6.80;;;5.00;;
25509;SDS011;13413;52.336;21.200;2023-05-07T01:37:31;5.70;;;4.70;;
25509;SDS011;13413;52.336;21.200;2023-05-07T01:40:25;4.90;;;4.40;;
25509;SDS011;13413;52.336;21.200;2023-05-07T01:43:20;6.70;;;4.70;;
25509;SDS011;13413;52.336;21.200;2023-05-07T01:46:14;6.80;;;4.80;;
25509;SDS011;13413;52.336;21.200;2023-05-07T01:49:10;6.60;;;4.20;;
25509;SDS011;13413;52.336;21.200;2023-05-07T01:52:04;5.70;;;4.20;;
25509;SDS011;13413;52.336;21.200;2023-05-07T01:54:58;6.90;;;4.50;;
25509;SDS011;13413;52.336;21.200;2023-05-07T01:57:52;6.40;;;4.10;;
25509;SDS011;13413;52.336;21.200;2023-05-07T02:00:46;5.00;;;4.10;;
25509;SDS011;13413;52.336;21.200;2023-05-07T02:03:41;7.00;;;4.50;;
25509;SDS011;13413;52.336;21.200;2023-05-07T02:06:35;5.20;;;4.60;;
25509;SDS011;13413;52.336;21.200;2023-05-07T02:09:28;11.40;;;4.90;;
25509;SDS011;13413;52.336;21.200;2023-05-07T02:12:22;8.60;;;5.90;;
25509;SDS011;13413;52.336;21.200;2023-05-07T02:18:13;6.00;;;4.90;;
25509;SDS011;13413;52.336;21.200;2023-05-07T02:21:07;7.90;;;4.70;;
25509;SDS011;13413;52.336;21.200;2023-05-07T02:24:01;6.20;;;5.50;;
25509;SDS011;13413;52.336;21.200;2023-05-07T02:26:55;7.30;;;5.90;;
25509;SDS011;13413;52.336;21.200;2023-05-07T02:29:49;9.80;;;5.70;;
25509;SDS011;13413;52.336;21.200;2023-05-07T02:32:43;8.10;;;5.60;;
25509;SDS011;13413;52.336;21.200;2023-05-07T02:35:37;7.70;;;5.70;;
25509;SDS011;13413;52.336;21.200;2023-05-07T02:38:31;9.90;;;3.30;;
25509;SDS011;13413;52.336;21.200;2023-05-07T02:47:09;6.80;;;5.60;;
25509;SDS011;13413;52.336;21.200;2023-05-07T02:50:04;7.30;;;5.40;;
25509;SDS011;13413;52.336;21.200;2023-05-07T02:52:59;7.20;;;5.10;;
25509;SDS011;13413;52.336;21.200;2023-05-07T02:55:53;7.30;;;5.70;;
25509;SDS011;13413;52.336;21.200;2023-05-07T02:58:47;8.60;;;6.40;;
25509;SDS011;13413;52.336;21.200;2023-05-07T03:01:41;7.70;;;6.30;;
25509;SDS011;13413;52.336;21.200;2023-05-07T03:04:35;7.80;;;6.00;;
25509;SDS011;13413;52.336;21.200;2023-05-07T03:07:30;9.40;;;6.00;;
25509;SDS011;13413;52.336;21.200;2023-05-07T03:10:24;6.20;;;5.00;;
25509;SDS011;13413;52.336;21.200;2023-05-07T03:13:18;9.50;;;5.60;;
25509;SDS011;13413;52.336;21.200;2023-05-07T03:16:12;7.00;;;5.60;;
25509;SDS011;13413;52.336;21.200;2023-05-07T03:19:06;8.20;;;5.90;;
25509;SDS011;13413;52.336;21.200;2023-05-07T03:22:00;7.00;;;5.50;;
25509;SDS011;13413;52.336;21.200;2023-05-07T03:24:54;6.50;;;5.10;;
25509;SDS011;13413;52.336;21.200;2023-05-07T03:27:48;5.80;;;4.40;;
25509;SDS011;13413;52.336;21.200;2023-05-07T03:30:42;5.70;;;5.10;;
25509;SDS011;13413;52.336;21.200;2023-05-07T03:33:38;6.60;;;4.70;;
25509;SDS011;13413;52.336;21.200;2023-05-07T03:36:43;6.20;;;5.10;;
25509;SDS011;13413;52.336;21.200;2023-05-07T03:39:38;7.00;;;5.80;;
25509;SDS011;13413;52.336;21.200;2023-05-07T03:45:28;8.30;;;5.90;;
25509;SDS011;13413;52.336;21.200;2023-05-07T03:48:22;8.60;;;5.80;;
25509;SDS011;13413;52.336;21.200;2023-05-07T03:51:16;7.20;;;5.70;;
25509;SDS011;13413;52.336;21.200;2023-05-07T03:54:11;7.20;;;6.00;;
25509;SDS011;13413;52.336;21.200;2023-05-07T03:57:05;7.40;;;5.60;;
25509;SDS011;13413;52.336;21.200;2023-05-07T03:59:59;9.10;;;5.40;;
25509;SDS011;13413;52.336;21.200;2023-05-07T04:02:53;8.60;;;5.60;;
25509;SDS011;13413;52.336;21.200;2023-05-07T04:05:47;8.70;;;5.40;;
25509;SDS011;13413;52.336;21.200;2023-05-07T04:08:41;6.50;;;4.60;;
25509;SDS011;13413;52.336;21.200;2023-05-07T04:11:35;8.10;;;4.90;;
25509;SDS011;13413;52.336;21.200;2023-05-07T04:14:29;6.20;;;5.20;;
25509;SDS011;13413;52.336;21.200;2023-05-07T04:17:23;6.30;;;5.10;;
25509;SDS011;13413;52.336;21.200;2023-05-07T04:20:18;5.90;;;4.90;;
25509;SDS011;13413;52.336;21.200;2023-05-07T04:23:12;6.10;;;4.60;;
25509;SDS011;13413;52.336;21.200;2023-05-07T04:26:06;6.40;;;4.80;;
25509;SDS011;13413;52.336;21.200;2023-05-07T04:29:00;6.90;;;5.30;;
25509;SDS011;13413;52.336;21.200;2023-05-07T04:31:54;6.30;;;5.00;;
25509;SDS011;13413;52.336;21.200;2023-05-07T04:34:48;8.60;;;5.00;;
25509;SDS011;13413;52.336;21.200;2023-05-07T04:40:36;6.20;;;4.60;;
25509;SDS011;13413;52.336;21.200;2023-05-07T04:43:30;8.10;;;5.10;;
25509;SDS011;13413;52.336;21.200;2023-05-07T04:46:24;5.10;;;4.20;;
25509;SDS011;13413;52.336;21.200;2023-05-07T04:49:18;8.20;;;5.70;;
25509;SDS011;13413;52.336;21.200;2023-05-07T04:52:12;5.70;;;5.00;;
25509;SDS011;13413;52.336;21.200;2023-05-07T04:55:07;6.80;;;4.80;;
25509;SDS011;13413;52.336;21.200;2023-05-07T04:58:02;5.20;;;4.30;;
25509;SDS011;13413;52.336;21.200;2023-05-07T05:06:28;8.00;;;4.50;;
25509;SDS011;13413;52.336;21.200;2023-05-07T05:09:22;5.20;;;4.70;;
25509;SDS011;13413;52.336;21.200;2023-05-07T05:12:16;6.50;;;5.10;;
25509;SDS011;13413;52.336;21.200;2023-05-07T05:15:10;6.80;;;5.10;;
25509;SDS011;13413;52.336;21.200;2023-05-07T05:18:04;6.60;;;5.10;;
25509;SDS011;13413;52.336;21.200;2023-05-07T05:20:58;8.90;;;5.30;;
25509;SDS011;13413;52.336;21.200;2023-05-07T05:23:53;5.70;;;5.00;;
25509;SDS011;13413;52.336;21.200;2023-05-07T05:29:39;6.50;;;5.40;;
25509;SDS011;13413;52.336;21.200;2023-05-07T05:32:34;3.10;;;2.90;;
25509;SDS011;13413;52.336;21.200;2023-05-07T05:35:29;5.80;;;4.20;;
25509;SDS011;13413;52.336;21.200;2023-05-07T05:38:24;7.80;;;4.60;;
25509;SDS011;13413;52.336;21.200;2023-05-07T05:41:17;4.50;;;3.60;;
25509;SDS011;13413;52.336;21.200;2023-05-07T05:44:12;4.90;;;4.10;;
25509;SDS011;13413;52.336;21.200;2023-05-07T05:47:05;4.90;;;4.40;;
25509;SDS011;13413;52.336;21.200;2023-05-07T05:49:59;7.70;;;4.30;;
25509;SDS011;13413;52.336;21.200;2023-05-07T05:52:54;6.50;;;4.90;;
25509;SDS011;13413;52.336;21.200;2023-05-07T05:56:08;7.40;;;5.00;;
25509;SDS011;13413;52.336;21.200;2023-05-07T05:59:02;6.00;;;4.40;;
25509;SDS011;13413;52.336;21.200;2023-05-07T06:04:49;7.90;;;5.50;;
25509;SDS011;13413;52.336;21.200;2023-05-07T06:07:43;6.40;;;4.90;;
25509;SDS011;13413;52.336;21.200;2023-05-07T06:10:38;9.30;;;5.50;;
25509;SDS011;13413;52.336;21.200;2023-05-07T06:13:31;6.40;;;4.90;;
25509;SDS011;13413;52.336;21.200;2023-05-07T06:16:26;5.80;;;4.50;;
25509;SDS011;13413;52.336;21.200;2023-05-07T06:19:20;7.20;;;5.50;;
25509;SDS011;13413;52.336;21.200;2023-05-07T06:22:13;6.50;;;5.00;;
25509;SDS011;13413;52.336;21.200;2023-05-07T06:25:08;7.70;;;5.10;;
25509;SDS011;13413;52.336;21.200;2023-05-07T06:28:02;6.90;;;4.80;;
25509;SDS011;13413;52.336;21.200;2023-05-07T06:31:06;6.20;;;4.70;;
25509;SDS011;13413;52.336;21.200;2023-05-07T06:34:05;6.80;;;4.80;;
25509;SDS011;13413;52.336;21.200;2023-05-07T06:36:58;7.00;;;4.80;;
25509;SDS011;13413;52.336;21.200;2023-05-07T06:39:53;7.00;;;4.70;;
25509;SDS011;13413;52.336;21.200;2023-05-07T06:42:47;4.70;;;4.10;;
25509;SDS011;13413;52.336;21.200;2023-05-07T06:45:40;5.00;;;4.40;;
25509;SDS011;13413;52.336;21.200;2023-05-07T06:48:35;9.80;;;5.50;;
25509;SDS011;13413;52.336;21.200;2023-05-07T06:51:29;7.10;;;5.40;;
25509;SDS011;13413;52.336;21.200;2023-05-07T06:54:23;6.10;;;4.60;;
25509;SDS011;13413;52.336;21.200;2023-05-07T06:57:16;7.60;;;5.80;;
25509;SDS011;13413;52.336;21.200;2023-05-07T07:00:12;7.60;;;4.70;;
25509;SDS011;13413;52.336;21.200;2023-05-07T07:06:19;9.50;;;7.00;;
25509;SDS011;13413;52.336;21.200;2023-05-07T07:09:12;9.30;;;6.70;;
25509;SDS011;13413;52.336;21.200;2023-05-07T07:12:06;8.10;;;5.40;;
25509;SDS011;13413;52.336;21.200;2023-05-07T07:15:03;6.80;;;4.30;;
25509;SDS011;13413;52.336;21.200;2023-05-07T07:26:25;4.60;;;4.00;;
25509;SDS011;13413;52.336;21.200;2023-05-07T07:29:19;4.40;;;3.90;;
25509;SDS011;13413;52.336;21.200;2023-05-07T07:32:13;4.80;;;4.10;;
25509;SDS011;13413;52.336;21.200;2023-05-07T07:35:08;5.20;;;3.60;;
25509;SDS011;13413;52.336;21.200;2023-05-07T07:38:02;7.40;;;3.90;;
25509;SDS011;13413;52.336;21.200;2023-05-07T07:40:56;9.00;;;4.00;;
25509;SDS011;13413;52.336;21.200;2023-05-07T07:43:50;3.90;;;3.40;;
25509;SDS011;13413;52.336;21.200;2023-05-07T07:46:44;7.00;;;4.30;;
25509;SDS011;13413;52.336;21.200;2023-05-07T07:49:38;5.10;;;4.00;;
25509;SDS011;13413;52.336;21.200;2023-05-07T07:55:26;5.60;;;4.20;;
25509;SDS011;13413;52.336;21.200;2023-05-07T07:58:20;6.80;;;5.00;;
25509;SDS011;13413;52.336;21.200;2023-05-07T08:01:14;7.00;;;5.00;;
25509;SDS011;13413;52.336;21.200;2023-05-07T08:04:10;4.70;;;4.20;;
25509;SDS011;13413;52.336;21.200;2023-05-07T08:07:04;3.50;;;3.20;;
25509;SDS011;13413;52.336;21.200;2023-05-07T08:09:58;6.40;;;3.30;;
25509;SDS011;13413;52.336;21.200;2023-05-07T08:12:52;5.10;;;3.70;;
25509;SDS011;13413;52.336;21.200;2023-05-07T08:15:46;4.90;;;3.40;;
25509;SDS011;13413;52.336;21.200;2023-05-07T08:18:40;7.70;;;3.50;;
25509;SDS011;13413;52.336;21.200;2023-05-07T08:21:34;8.20;;;4.20;;
25509;SDS011;13413;52.336;21.200;2023-05-07T08:24:30;5.30;;;3.30;;
25509;SDS011;13413;52.336;21.200;2023-05-07T08:27:24;5.20;;;3.40;;
25509;SDS011;13413;52.336;21.200;2023-05-07T08:30:18;4.20;;;3.50;;
25509;SDS011;13413;52.336;21.200;2023-05-07T08:33:12;7.00;;;3.40;;
25509;SDS011;13413;52.336;21.200;2023-05-07T08:36:06;5.40;;;3.00;;
25509;SDS011;13413;52.336;21.200;2023-05-07T08:41:54;5.10;;;3.20;;
25509;SDS011;13413;52.336;21.200;2023-05-07T08:44:52;3.00;;;2.70;;
25509;SDS011;13413;52.336;21.200;2023-05-07T08:47:52;4.90;;;3.10;;
25509;SDS011;13413;52.336;21.200;2023-05-07T08:50:50;9.10;;;3.00;;
25509;SDS011;13413;52.336;21.200;2023-05-07T08:53:44;4.50;;;3.20;;
25509;SDS011;13413;52.336;21.200;2023-05-07T08:56:39;3.80;;;3.00;;
25509;SDS011;13413;52.336;21.200;2023-05-07T08:59:33;4.60;;;3.00;;
25509;SDS011;13413;52.336;21.200;2023-05-07T09:05:23;4.20;;;3.10;;
25509;SDS011;13413;52.336;21.200;2023-05-07T09:08:17;10.20;;;3.40;;
25509;SDS011;13413;52.336;21.200;2023-05-07T09:11:16;5.80;;;3.20;;
25509;SDS011;13413;52.336;21.200;2023-05-07T09:14:11;3.60;;;2.70;;
25509;SDS011;13413;52.336;21.200;2023-05-07T09:17:05;5.40;;;2.90;;
25509;SDS011;13413;52.336;21.200;2023-05-07T09:20:03;3.20;;;2.90;;
25509;SDS011;13413;52.336;21.200;2023-05-07T09:22:58;3.70;;;2.90;;
25509;SDS011;13413;52.336;21.200;2023-05-07T09:25:53;4.00;;;2.40;;
25509;SDS011;13413;52.336;21.200;2023-05-07T09:28:53;5.60;;;2.90;;
25509;SDS011;13413;52.336;21.200;2023-05-07T09:32:09;4.20;;;2.30;;
25509;SDS011;13413;52.336;21.200;2023-05-07T09:35:15;2.60;;;2.40;;
25509;SDS011;13413;52.336;21.200;2023-05-07T09:38:10;3.10;;;2.60;;
25509;SDS011;13413;52.336;21.200;2023-05-07T09:50:09;3.20;;;2.30;;
25509;SDS011;13413;52.336;21.200;2023-05-07T09:53:05;4.60;;;2.70;;
25509;SDS011;13413;52.336;21.200;2023-05-07T09:56:02;7.30;;;2.30;;
25509;SDS011;13413;52.336;21.200;2023-05-07T09:58:57;2.30;;;2.00;;
25509;SDS011;13413;52.336;21.200;2023-05-07T10:01:53;7.80;;;2.60;;
25509;SDS011;13413;52.336;21.200;2023-05-07T10:04:52;3.00;;;2.60;;
25509;SDS011;13413;52.336;21.200;2023-05-07T10:07:46;2.20;;;2.00;;
25509;SDS011;13413;52.336;21.200;2023-05-07T10:10:41;2.70;;;2.50;;
25509;SDS011;13413;52.336;21.200;2023-05-07T10:13:36;4.10;;;2.40;;
25509;SDS011;13413;52.336;21.200;2023-05-07T10:19:24;4.10;;;2.70;;
25509;SDS011;13413;52.336;21.200;2023-05-07T10:22:20;3.20;;;2.60;;
25509;SDS011;13413;52.336;21.200;2023-05-07T10:25:18;3.10;;;2.80;;
25509;SDS011;13413;52.336;21.200;2023-05-07T10:28:13;3.60;;;2.60;;
25509;SDS011;13413;52.336;21.200;2023-05-07T10:31:15;2.80;;;2.60;;
25509;SDS011;13413;52.336;21.200;2023-05-07T10:34:22;4.80;;;2.30;;
25509;SDS011;13413;52.336;21.200;2023-05-07T10:37:20;2.40;;;2.20;;
25509;SDS011;13413;52.336;21.200;2023-05-07T10:40:16;4.30;;;3.00;;
25509;SDS011;13413;52.336;21.200;2023-05-07T10:43:12;5.90;;;2.60;;
25509;SDS011;13413;52.336;21.200;2023-05-07T10:46:13;7.10;;;2.90;;
25509;SDS011;13413;52.336;21.200;2023-05-07T10:49:11;3.00;;;2.60;;
25509;SDS011;13413;52.336;21.200;2023-05-07T10:52:15;3.90;;;2.30;;
25509;SDS011;13413;52.336;21.200;2023-05-07T10:58:25;4.60;;;2.70;;
25509;SDS011;13413;52.336;21.200;2023-05-07T11:04:43;3.40;;;2.60;;
25509;SDS011;13413;52.336;21.200;2023-05-07T11:07:58;9.60;;;3.30;;
25509;SDS011;13413;52.336;21.200;2023-05-07T11:10:54;4.90;;;2.60;;
25509;SDS011;13413;52.336;21.200;2023-05-07T11:13:49;8.10;;;2.90;;
25509;SDS011;13413;52.336;21.200;2023-05-07T11:16:43;4.50;;;1.80;;
25509;SDS011;13413;52.336;21.200;2023-05-07T11:19:51;2.90;;;2.10;;
25509;SDS011;13413;52.336;21.200;2023-05-07T11:22:46;4.50;;;2.30;;
25509;SDS011;13413;52.336;21.200;2023-05-07T11:25:40;5.00;;;3.10;;
25509;SDS011;13413;52.336;21.200;2023-05-07T11:31:30;4.70;;;2.60;;
25509;SDS011;13413;52.336;21.200;2023-05-07T11:34:25;9.40;;;3.00;;
25509;SDS011;13413;52.336;21.200;2023-05-07T11:37:20;13.40;;;3.40;;
25509;SDS011;13413;52.336;21.200;2023-05-07T11:40:15;3.70;;;2.40;;
25509;SDS011;13413;52.336;21.200;2023-05-07T11:43:11;3.70;;;2.40;;
25509;SDS011;13413;52.336;21.200;2023-05-07T11:46:07;4.20;;;2.00;;
25509;SDS011;13413;52.336;21.200;2023-05-07T11:49:02;2.80;;;2.20;;
25509;SDS011;13413;52.336;21.200;2023-05-07T11:51:56;2.80;;;2.10;;
25509;SDS011;13413;52.336;21.200;2023-05-07T11:54:50;7.90;;;2.60;;
25509;SDS011;13413;52.336;21.200;2023-05-07T11:57:45;2.20;;;1.60;;
25509;SDS011;13413;52.336;21.200;2023-05-07T12:09:14;2.10;;;1.90;;
25509;SDS011;13413;52.336;21.200;2023-05-07T12:12:08;4.00;;;2.00;;
25509;SDS011;13413;52.336;21.200;2023-05-07T12:15:03;4.30;;;2.20;;
25509;SDS011;13413;52.336;21.200;2023-05-07T12:20:51;4.30;;;2.20;;
25509;SDS011;13413;52.336;21.200;2023-05-07T12:23:45;3.40;;;2.20;;
25509;SDS011;13413;52.336;21.200;2023-05-07T12:26:40;2.70;;;2.10;;
25509;SDS011;13413;52.336;21.200;2023-05-07T12:29:36;6.00;;;3.10;;
25509;SDS011;13413;52.336;21.200;2023-05-07T12:32:30;3.80;;;2.30;;
25509;SDS011;13413;52.336;21.200;2023-05-07T12:35:29;5.00;;;2.30;;
25509;SDS011;13413;52.336;21.200;2023-05-07T12:38:24;8.00;;;2.40;;
25509;SDS011;13413;52.336;21.200;2023-05-07T12:41:18;4.70;;;2.10;;
25509;SDS011;13413;52.336;21.200;2023-05-07T12:44:12;3.80;;;1.80;;
25509;SDS011;13413;52.336;21.200;2023-05-07T12:47:09;5.80;;;2.40;;
25509;SDS011;13413;52.336;21.200;2023-05-07T12:50:04;3.10;;;2.30;;
25509;SDS011;13413;52.336;21.200;2023-05-07T12:53:00;7.10;;;2.00;;
25509;SDS011;13413;52.336;21.200;2023-05-07T12:55:56;4.90;;;2.40;;
25509;SDS011;13413;52.336;21.200;2023-05-07T13:01:45;4.00;;;2.10;;
25509;SDS011;13413;52.336;21.200;2023-05-07T13:04:40;5.90;;;2.70;;
25509;SDS011;13413;52.336;21.200;2023-05-07T13:07:33;4.60;;;2.10;;
25509;SDS011;13413;52.336;21.200;2023-05-07T13:10:27;4.70;;;1.70;;
25509;SDS011;13413;52.336;21.200;2023-05-07T13:13:21;4.70;;;2.00;;
25509;SDS011;13413;52.336;21.200;2023-05-07T13:16:16;6.90;;;1.70;;
25509;SDS011;13413;52.336;21.200;2023-05-07T13:19:10;2.30;;;1.80;;
25509;SDS011;13413;52.336;21.200;2023-05-07T13:22:03;5.60;;;3.20;;
25509;SDS011;13413;52.336;21.200;2023-05-07T13:24:58;3.10;;;2.10;;
25509;SDS011;13413;52.336;21.200;2023-05-07T13:27:51;4.30;;;2.20;;
25509;SDS011;13413;52.336;21.200;2023-05-07T13:30:46;7.20;;;2.20;;
25509;SDS011;13413;52.336;21.200;2023-05-07T13:33:40;13.20;;;2.90;;
25509;SDS011;13413;52.336;21.200;2023-05-07T13:36:33;6.70;;;2.60;;
25509;SDS011;13413;52.336;21.200;2023-05-07T13:39:27;3.40;;;2.30;;
25509;SDS011;13413;52.336;21.200;2023-05-07T13:42:22;5.90;;;2.20;;
25509;SDS011;13413;52.336;21.200;2023-05-07T13:45:16;2.50;;;2.00;;
25509;SDS011;13413;52.336;21.200;2023-05-07T13:51:02;4.80;;;2.10;;
25509;SDS011;13413;52.336;21.200;2023-05-07T13:53:57;3.00;;;1.70;;
25509;SDS011;13413;52.336;21.200;2023-05-07T13:56:51;3.80;;;1.60;;
25509;SDS011;13413;52.336;21.200;2023-05-07T13:59:45;2.60;;;1.80;;
25509;SDS011;13413;52.336;21.200;2023-05-07T14:02:39;3.90;;;2.20;;
25509;SDS011;13413;52.336;21.200;2023-05-07T14:05:33;3.60;;;2.30;;
25509;SDS011;13413;52.336;21.200;2023-05-07T14:08:27;6.90;;;1.70;;
25509;SDS011;13413;52.336;21.200;2023-05-07T14:11:21;4.00;;;1.90;;
25509;SDS011;13413;52.336;21.200;2023-05-07T14:14:14;2.20;;;1.80;;
25509;SDS011;13413;52.336;21.200;2023-05-07T14:17:09;3.20;;;1.90;;
25509;SDS011;13413;52.336;21.200;2023-05-07T14:30:46;2.90;;;2.20;;
25509;SDS011;13413;52.336;21.200;2023-05-07T14:33:40;3.60;;;2.30;;
25509;SDS011;13413;52.336;21.200;2023-05-07T14:36:34;3.40;;;2.60;;
25509;SDS011;13413;52.336;21.200;2023-05-07T14:39:29;3.80;;;2.40;;
25509;SDS011;13413;52.336;21.200;2023-05-07T14:42:23;2.20;;;1.90;;
25509;SDS011;13413;52.336;21.200;2023-05-07T14:45:17;4.70;;;2.30;;
25509;SDS011;13413;52.336;21.200;2023-05-07T14:48:11;5.20;;;2.60;;
25509;SDS011;13413;52.336;21.200;2023-05-07T14:51:05;4.10;;;2.40;;
25509;SDS011;13413;52.336;21.200;2023-05-07T14:53:59;2.90;;;2.30;;
25509;SDS011;13413;52.336;21.200;2023-05-07T14:56:53;7.40;;;2.60;;
25509;SDS011;13413;52.336;21.200;2023-05-07T14:59:49;2.90;;;2.10;;
25509;SDS011;13413;52.336;21.200;2023-05-07T15:02:44;5.40;;;3.00;;
25509;SDS011;13413;52.336;21.200;2023-05-07T15:05:40;3.60;;;2.90;;
25509;SDS011;13413;52.336;21.200;2023-05-07T15:08:33;4.10;;;3.30;;
25509;SDS011;13413;52.336;21.200;2023-05-07T15:11:28;5.40;;;2.90;;
25509;SDS011;13413;52.336;21.200;2023-05-07T15:14:22;7.30;;;2.70;;
25509;SDS011;13413;52.336;21.200;2023-05-07T15:17:16;5.30;;;2.70;;
25509;SDS011;13413;52.336;21.200;2023-05-07T15:20:10;3.10;;;2.20;;
25509;SDS011;13413;52.336;21.200;2023-05-07T15:23:04;6.50;;;3.00;;
25509;SDS011;13413;52.336;21.200;2023-05-07T15:25:59;5.10;;;2.50;;
25509;SDS011;13413;52.336;21.200;2023-05-07T15:28:53;3.50;;;2.70;;
25509;SDS011;13413;52.336;21.200;2023-05-07T15:31:47;8.10;;;3.00;;
25509;SDS011;13413;52.336;21.200;2023-05-07T15:34:41;3.60;;;2.80;;
25509;SDS011;13413;52.336;21.200;2023-05-07T15:37:35;3.90;;;2.50;;
25509;SDS011;13413;52.336;21.200;2023-05-07T15:40:29;4.70;;;2.50;;
25509;SDS011;13413;52.336;21.200;2023-05-07T15:43:23;3.70;;;2.70;;
25509;SDS011;13413;52.336;21.200;2023-05-07T15:46:18;7.00;;;3.80;;
25509;SDS011;13413;52.336;21.200;2023-05-07T15:49:13;2.40;;;2.20;;
25509;SDS011;13413;52.336;21.200;2023-05-07T15:52:07;3.50;;;2.30;;
25509;SDS011;13413;52.336;21.200;2023-05-07T15:55:01;2.70;;;2.00;;
25509;SDS011;13413;52.336;21.200;2023-05-07T15:57:55;2.40;;;2.20;;
25509;SDS011;13413;52.336;21.200;2023-05-07T16:01:02;4.20;;;2.10;;
25509;SDS011;13413;52.336;21.200;2023-05-07T16:03:57;2.80;;;2.20;;
25509;SDS011;13413;52.336;21.200;2023-05-07T16:06:51;2.20;;;1.90;;
25509;SDS011;13413;52.336;21.200;2023-05-07T16:09:45;4.20;;;2.60;;
25509;SDS011;13413;52.336;21.200;2023-05-07T16:12:38;3.40;;;2.20;;
25509;SDS011;13413;52.336;21.200;2023-05-07T16:15:33;3.30;;;1.80;;
25509;SDS011;13413;52.336;21.200;2023-05-07T16:18:27;20.90;;;13.70;;
25509;SDS011;13413;52.336;21.200;2023-05-07T16:21:21;6.70;;;5.10;;
25509;SDS011;13413;52.336;21.200;2023-05-07T16:24:15;5.50;;;4.50;;
25509;SDS011;13413;52.336;21.200;2023-05-07T16:27:09;6.10;;;2.70;;
25509;SDS011;13413;52.336;21.200;2023-05-07T16:30:03;4.70;;;4.00;;
25509;SDS011;13413;52.336;21.200;2023-05-07T16:32:59;3.80;;;2.50;;
25509;SDS011;13413;52.336;21.200;2023-05-07T16:35:53;4.10;;;2.10;;
25509;SDS011;13413;52.336;21.200;2023-05-07T16:38:47;2.60;;;2.30;;
25509;SDS011;13413;52.336;21.200;2023-05-07T16:41:41;2.70;;;1.90;;
25509;SDS011;13413;52.336;21.200;2023-05-07T16:50:10;5.80;;;3.50;;
25509;SDS011;13413;52.336;21.200;2023-05-07T16:53:04;12.50;;;7.80;;
25509;SDS011;13413;52.336;21.200;2023-05-07T16:56:12;5.00;;;3.00;;
25509;SDS011;13413;52.336;21.200;2023-05-07T16:59:06;4.10;;;3.10;;
25509;SDS011;13413;52.336;21.200;2023-05-07T17:02:00;4.70;;;2.70;;
25509;SDS011;13413;52.336;21.200;2023-05-07T17:04:54;6.80;;;3.70;;
25509;SDS011;13413;52.336;21.200;2023-05-07T17:07:48;7.30;;;3.30;;
25509;SDS011;13413;52.336;21.200;2023-05-07T17:10:42;7.50;;;4.20;;
25509;SDS011;13413;52.336;21.200;2023-05-07T17:13:36;7.70;;;5.70;;
25509;SDS011;13413;52.336;21.200;2023-05-07T17:16:30;5.60;;;2.70;;
25509;SDS011;13413;52.336;21.200;2023-05-07T17:19:24;7.80;;;5.60;;
25509;SDS011;13413;52.336;21.200;2023-05-07T17:22:18;7.60;;;5.10;;
25509;SDS011;13413;52.336;21.200;2023-05-07T17:25:15;4.30;;;3.80;;
25509;SDS011;13413;52.336;21.200;2023-05-07T17:28:09;5.10;;;4.30;;
25509;SDS011;13413;52.336;21.200;2023-05-07T17:31:04;15.30;;;13.50;;
25509;SDS011;13413;52.336;21.200;2023-05-07T17:33:58;16.10;;;12.10;;
25509;SDS011;13413;52.336;21.200;2023-05-07T17:36:52;21.70;;;15.40;;
25509;SDS011;13413;52.336;21.200;2023-05-07T17:39:46;10.70;;;6.80;;
25509;SDS011;13413;52.336;21.200;2023-05-07T17:42:40;7.10;;;5.70;;
25509;SDS011;13413;52.336;21.200;2023-05-07T17:45:34;7.10;;;5.30;;
25509;SDS011;13413;52.336;21.200;2023-05-07T17:48:28;7.90;;;5.20;;
25509;SDS011;13413;52.336;21.200;2023-05-07T17:51:22;9.00;;;6.40;;
25509;SDS011;13413;52.336;21.200;2023-05-07T17:54:16;10.80;;;7.40;;
25509;SDS011;13413;52.336;21.200;2023-05-07T17:57:10;24.30;;;14.90;;
25509;SDS011;13413;52.336;21.200;2023-05-07T18:00:05;14.10;;;8.50;;
25509;SDS011;13413;52.336;21.200;2023-05-07T18:03:00;18.30;;;9.80;;
25509;SDS011;13413;52.336;21.200;2023-05-07T18:05:55;27.50;;;13.70;;
25509;SDS011;13413;52.336;21.200;2023-05-07T18:08:49;29.40;;;17.30;;
25509;SDS011;13413;52.336;21.200;2023-05-07T18:11:43;35.90;;;22.60;;
25509;SDS011;13413;52.336;21.200;2023-05-07T18:14:37;20.60;;;17.20;;
25509;SDS011;13413;52.336;21.200;2023-05-07T18:17:32;24.30;;;14.80;;
25509;SDS011;13413;52.336;21.200;2023-05-07T18:20:26;19.10;;;10.30;;
25509;SDS011;13413;52.336;21.200;2023-05-07T18:23:20;18.10;;;9.40;;
25509;SDS011;13413;52.336;21.200;2023-05-07T18:26:13;12.90;;;8.70;;
25509;SDS011;13413;52.336;21.200;2023-05-07T18:32:01;14.50;;;9.50;;
25509;SDS011;13413;52.336;21.200;2023-05-07T18:34:55;17.30;;;12.80;;
25509;SDS011;13413;52.336;21.200;2023-05-07T18:37:49;22.10;;;16.10;;
25509;SDS011;13413;52.336;21.200;2023-05-07T18:40:43;24.40;;;15.50;;
25509;SDS011;13413;52.336;21.200;2023-05-07T18:43:37;19.60;;;13.90;;
25509;SDS011;13413;52.336;21.200;2023-05-07T18:46:31;40.70;;;29.50;;
25509;SDS011;13413;52.336;21.200;2023-05-07T18:55:27;42.60;;;30.30;;
25509;SDS011;13413;52.336;21.200;2023-05-07T18:58:20;41.20;;;28.60;;
25509;SDS011;13413;52.336;21.200;2023-05-07T19:11:25;69.50;;;38.60;;
25509;SDS011;13413;52.336;21.200;2023-05-07T19:14:19;57.00;;;35.70;;
25509;SDS011;13413;52.336;21.200;2023-05-07T19:17:13;43.40;;;25.80;;
25509;SDS011;13413;52.336;21.200;2023-05-07T19:20:08;39.10;;;25.20;;
25509;SDS011;13413;52.336;21.200;2023-05-07T19:23:04;23.60;;;17.90;;
25509;SDS011;13413;52.336;21.200;2023-05-07T19:25:58;24.70;;;15.60;;
25509;SDS011;13413;52.336;21.200;2023-05-07T19:28:52;17.20;;;12.40;;
25509;SDS011;13413;52.336;21.200;2023-05-07T19:31:46;18.90;;;12.60;;